This demonstration page uses our WeatherBlox Daily Observations layout. Learn more.

36.17497, -115.13722

Hourly Observations for July 2, 2018

Temp ( °F °C ) Dew Point ( °F °C ) Humidity (%) Winds ( mph kmh ) Pressure ( in mb ) Visibility ( mi km ) Precip ( " mm )
12:53 am 00:53 Clear 93 33.9 31 -0.6 11 11 WNW 6 9 29.8 1009 10 16.09344 0 0
1:53 am 01:53 Clear 86 30 34 1.1 15 15 NW 8 13 29.8 1009 10 16.09344 0 0
2:53 am 02:53 Clear 85 29.4 34 1.1 16 16 N 7 11 29.8 1009 10 16.09344 0 0
3:53 am 03:53 Clear 84 28.9 33 0.6 16 16 NE 6 9 29.8 1009 10 16.09344 0 0
4:53 am 04:53 Clear 82 27.8 34 1.1 18 18 N 6 9 29.8 1009 10 16.09344 0 0
5:53 am 05:53 Sunny 81 27.2 35 1.7 19 19 N 6 9 29.83 1010 10 16.09344 0 0
6:53 am 06:53 Sunny 84 28.9 35 1.7 17 17 NNE 6 9 29.83 1010 10 16.09344 0 0
7:53 am 07:53 Sunny 87 30.6 36 2.2 16 16 NE 5 7 29.85 1011 10 16.09344 0 0
8:53 am 08:53 Sunny 90 32.2 36 2.2 15 15 E 5 7 29.85 1011 10 16.09344 0 0
9:53 am 09:53 Sunny 92 33.3 37 2.8 14 14 ESE 5 7 29.85 1011 10 16.09344 0 0
10:53 am 10:53 Sunny 96 35.6 35 1.7 12 12 N 6 9 29.83 1010 10 16.09344 0 0
11:53 am 11:53 Sunny 101 38.3 32 0 9 9 SE 7 11 29.8 1009 10 16.09344 0 0
12:53 pm 12:53 Sunny 104 40 32 0 8 8 S 13 20 29.77 1008 10 16.09344 0 0
1:53 pm 13:53 Sunny 104 40 31 -0.6 8 8 S 10 17 29.77 1008 10 16.09344 0 0
2:53 pm 14:53 Sunny 106 41.1 30 -1.1 7 7 S 10 17 29.74 1007 10 16.09344 0 0
3:53 pm 15:53 Sunny 107 41.7 29 -1.7 6 6 S 14 22 29.71 1006 10 16.09344 0 0
4:53 pm 16:53 Sunny 107 41.7 27 -2.8 6 6 S 16 26 29.68 1005 10 16.09344 0 0
5:53 pm 17:53 Sunny 106 41.1 28 -2.2 6 6 SSW 16 26 29.65 1004 10 16.09344 0 0
6:53 pm 18:53 Sunny 103 39.4 29 -1.7 7 7 S 16 26 29.65 1004 10 16.09344 0 0
7:53 pm 19:53 Sunny 101 38.3 26 -3.3 7 7 S 14 22 29.68 1005 10 16.09344 0 0
8:53 pm 20:53 Clear 99 37.2 22 -5.6 6 6 SSW 12 19 29.68 1005 10 16.09344 0 0
9:53 pm 21:53 Clear 96 35.6 23 -5 7 7 S 8 13 29.71 1006 10 16.09344 0 0
10:53 pm 22:53 Clear 92 33.3 24 -4.4 8 8 S 9 15 29.71 1006 10 16.09344 0 0
11:53 pm 23:53 Clear 91 32.8 26 -3.3 9 9 S 6 9 29.71 1006 10 16.09344 0 0

Powered by AerisWeather